createdAt,value
2024-02-29T00:04:56.963Z,98759.34
2024-02-29T00:09:59.670Z,98761.06
2024-02-29T00:15:04.851Z,98757.78
2024-02-29T00:20:18.885Z,98752.66
2024-02-29T00:25:25.281Z,98745.09
2024-02-29T00:30:27.236Z,98741.81
2024-02-29T00:35:29.473Z,98737.69
2024-02-29T00:40:31.431Z,98743.84
2024-02-29T00:45:45.937Z,98724.19
2024-02-29T00:50:48.954Z,98728.38
2024-02-29T00:55:51.200Z,98721.72
2024-02-29T01:00:53.543Z,98714.94
2024-02-29T01:05:55.795Z,98718.44
2024-02-29T01:10:57.860Z,98712.50
2024-02-29T01:15:59.782Z,98695.38
2024-02-29T01:21:01.925Z,98696.41
2024-02-29T01:26:05.394Z,98689.53
2024-02-29T01:31:07.704Z,98672.34
2024-02-29T01:36:09.650Z,98664.75
2024-02-29T01:41:11.643Z,98664.66
2024-02-29T01:46:18.940Z,98660.25
2024-02-29T01:51:21.567Z,98655.34
2024-02-29T01:56:23.985Z,98655.34
2024-02-29T02:01:30.147Z,98645.28
2024-02-29T02:06:32.462Z,98636.91
2024-02-29T02:11:40.462Z,98642.22
2024-02-29T02:16:43.061Z,98637.31
2024-02-29T02:21:45.189Z,98641.81
2024-02-29T02:26:47.485Z,98632.59
2024-02-29T02:31:49.828Z,98638.81
2024-02-29T02:36:52.209Z,98639.75
2024-02-29T02:41:54.570Z,98630.41
2024-02-29T02:46:56.865Z,98626.22
2024-02-29T02:51:58.937Z,98614.34
2024-02-29T02:57:01.316Z,98612.72
2024-02-29T03:02:03.957Z,98609.31
2024-02-29T03:07:06.180Z,98612.28
2024-02-29T03:12:09.240Z,98605.63
2024-02-29T03:17:11.176Z,98615.16
2024-02-29T03:22:13.368Z,98611.03
2024-02-29T03:27:15.998Z,98601.00
2024-02-29T03:32:20.794Z,98606.03
2024-02-29T03:37:23.016Z,98604.47
2024-02-29T03:42:25.186Z,98603.03
2024-02-29T03:47:27.364Z,98598.94
2024-02-29T03:52:29.283Z,98608.47
2024-02-29T03:57:31.304Z,98590.75
2024-02-29T04:02:33.770Z,98590.84
2024-02-29T04:07:42.354Z,98585.81
2024-02-29T04:12:44.434Z,98575.78
2024-02-29T04:17:46.575Z,98576.00
2024-02-29T04:22:48.875Z,98577.63
2024-02-29T04:27:52.676Z,98580.38
2024-02-29T04:32:55.073Z,98572.00
2024-02-29T04:37:57.210Z,98566.16
2024-02-29T04:42:59.456Z,98567.88
2024-02-29T04:48:02.152Z,98560.31
2024-02-29T04:53:04.550Z,98564.50
2024-02-29T04:58:07.278Z,98564.72
2024-02-29T05:03:09.653Z,98557.97
2024-02-29T05:08:11.818Z,98566.53
2024-02-29T05:13:14.175Z,98573.50
2024-02-29T05:18:16.870Z,98559.88
2024-02-29T05:23:21.009Z,98558.97
2024-02-29T05:28:23.349Z,98556.41
2024-02-29T05:33:25.949Z,98547.72
2024-02-29T05:38:28.173Z,98552.84
2024-02-29T05:43:33.075Z,98551.19
2024-02-29T05:48:39.144Z,98546.19
2024-02-29T05:53:41.511Z,98549.56
2024-02-29T05:58:45.652Z,98554.47
2024-02-29T06:03:53.871Z,98556.94
2024-02-29T06:08:55.983Z,98555.94
2024-02-29T06:14:13.385Z,98547.34
2024-02-29T06:24:44.728Z,98557.56
2024-02-29T06:29:47.268Z,98561.97
2024-02-29T06:34:50.627Z,98555.94
2024-02-29T06:39:53.149Z,98555.31
2024-02-29T06:44:55.826Z,98555.56
2024-02-29T06:49:58.110Z,98547.28
2024-02-29T06:55:00.450Z,98533.06
2024-02-29T07:00:02.999Z,98537.88
2024-02-29T07:05:05.963Z,98543.19
2024-02-29T07:10:09.131Z,98530.50
2024-02-29T07:20:29.134Z,98523.72
2024-02-29T07:25:40.960Z,98535.78
2024-02-29T07:30:43.136Z,98531.66
2024-02-29T07:35:45.369Z,98529.28
2024-02-29T07:40:47.489Z,98527.44
2024-02-29T07:45:49.756Z,98527.00
2024-02-29T07:50:52.728Z,98525.66
2024-02-29T07:55:56.099Z,98528.59
2024-02-29T08:00:58.426Z,98523.44
2024-02-29T08:06:01.702Z,98531.28
2024-02-29T08:11:25.256Z,98521.28
2024-02-29T08:16:27.549Z,98519.59
2024-02-29T08:21:50.700Z,98504.47
2024-02-29T08:26:54.751Z,98518.97
2024-02-29T08:32:07.892Z,98508.72
2024-02-29T08:37:10.370Z,98501.28
2024-02-29T08:42:12.695Z,98491.75
2024-02-29T08:47:14.959Z,98482.66
2024-02-29T08:52:17.195Z,98478.22
2024-02-29T08:57:20.543Z,98482.41
2024-02-29T09:02:22.869Z,98476.34
2024-02-29T09:07:25.451Z,98457.53
2024-02-29T09:12:27.697Z,98457.84
2024-02-29T09:17:32.939Z,98456.75
2024-02-29T09:22:37.314Z,98436.03
2024-02-29T09:27:39.756Z,98443.09
2024-02-29T09:32:41.936Z,98434.25
2024-02-29T09:37:44.119Z,98422.81
2024-02-29T09:42:46.420Z,98420.63
2024-02-29T09:47:49.263Z,98415.47
2024-02-29T09:52:53.731Z,98403.94
2024-02-29T09:58:01.267Z,98403.50
2024-02-29T10:03:05.583Z,98397.75
2024-02-29T10:08:07.840Z,98390.19
2024-02-29T10:13:10.108Z,98381.56
2024-02-29T10:18:19.035Z,98364.75
2024-02-29T10:23:21.432Z,98357.84
2024-02-29T10:28:35.238Z,98349.28
2024-02-29T10:33:39.951Z,98355.38
2024-02-29T10:38:52.987Z,98346.66
2024-02-29T10:44:04.708Z,98335.25
2024-02-29T10:49:25.364Z,98327.09
2024-02-29T10:54:40.239Z,98320.72
2024-02-29T10:59:56.261Z,98303.78
2024-02-29T11:04:59.030Z,98292.03
2024-02-29T11:10:05.963Z,98293.38
2024-02-29T11:15:12.946Z,98288.34
2024-02-29T11:20:21.365Z,98277.31
2024-02-29T11:25:24.084Z,98265.53
2024-02-29T11:30:27.115Z,98265.34
2024-02-29T11:35:29.397Z,98261.53
2024-02-29T11:40:35.595Z,98263.97
2024-02-29T11:45:39.180Z,98252.72
2024-02-29T11:50:41.895Z,98249.78
2024-02-29T11:55:45.501Z,98249.34
2024-02-29T12:00:48.006Z,98241.72
2024-02-29T12:05:50.890Z,98243.13
2024-02-29T12:10:55.074Z,98233.28
2024-02-29T12:15:58.875Z,98233.88
2024-02-29T12:21:02.618Z,98222.56
2024-02-29T12:26:12.563Z,98220.00
2024-02-29T12:31:15.754Z,98214.97
2024-02-29T12:36:18.239Z,98204.94
2024-02-29T12:41:21.023Z,98204.56
2024-02-29T12:46:24.286Z,98195.47
2024-02-29T12:51:27.867Z,98181.59
2024-02-29T12:56:31.121Z,98170.81
2024-02-29T13:01:33.362Z,98161.16
2024-02-29T13:06:35.663Z,98151.50
2024-02-29T13:17:09.012Z,98139.59
2024-02-29T13:22:11.162Z,98140.13
2024-02-29T13:27:13.268Z,98125.94
2024-02-29T13:32:15.482Z,98124.84
2024-02-29T13:37:21.963Z,98116.41
2024-02-29T13:42:24.234Z,98112.38
2024-02-29T13:47:26.511Z,98109.88
2024-02-29T13:52:28.976Z,98092.09
2024-02-29T13:57:31.038Z,98086.25
2024-02-29T14:02:34.503Z,98085.97
2024-02-29T14:07:36.829Z,98068.91
2024-02-29T14:12:40.124Z,98066.16
2024-02-29T14:17:42.310Z,98060.34
2024-02-29T14:22:44.962Z,98049.84
2024-02-29T14:27:47.323Z,98040.31
2024-02-29T14:32:50.156Z,98035.16
2024-02-29T14:37:53.227Z,98025.78
2024-02-29T14:42:55.296Z,98018.03
2024-02-29T14:47:59.369Z,98017.38
2024-02-29T14:53:01.464Z,98015.69
2024-02-29T14:58:03.696Z,98002.88
2024-02-29T15:03:12.630Z,97998.31
2024-02-29T15:08:16.016Z,97998.75
2024-02-29T15:13:18.264Z,97984.38
2024-02-29T15:18:20.751Z,97983.72
2024-02-29T15:23:23.054Z,97988.53
2024-02-29T15:28:27.461Z,97976.22
2024-02-29T15:33:29.869Z,97986.19
2024-02-29T15:38:31.910Z,97973.72
2024-02-29T15:43:34.215Z,97970.78
2024-02-29T15:48:36.510Z,97964.94
2024-02-29T15:53:38.479Z,97962.81
2024-02-29T15:58:43.824Z,97961.78
2024-02-29T16:03:45.999Z,97953.81
2024-02-29T16:08:48.119Z,97949.63
2024-02-29T16:19:07.066Z,97932.81
2024-02-29T16:24:09.382Z,97921.03
2024-02-29T16:29:11.407Z,97924.56
2024-02-29T16:34:15.978Z,97916.47
2024-02-29T16:39:39.052Z,97910.63
2024-02-29T16:44:42.518Z,97909.16
2024-02-29T16:49:46.517Z,97912.56
2024-02-29T16:54:48.842Z,97904.00
2024-02-29T16:59:51.130Z,97908.06
2024-02-29T17:04:53.284Z,97895.16
2024-02-29T17:10:00.115Z,97888.22
2024-02-29T17:15:03.094Z,97889.19
2024-02-29T17:20:07.226Z,97883.88
2024-02-29T17:25:09.955Z,97878.72
2024-02-29T17:30:13.206Z,97872.75
2024-02-29T17:35:17.244Z,97870.84
2024-02-29T17:40:19.421Z,97859.72
2024-02-29T17:45:22.339Z,97857.78
2024-02-29T17:50:24.510Z,97844.91
2024-02-29T17:55:28.846Z,97837.81
2024-02-29T18:00:32.454Z,97833.47
2024-02-29T18:05:34.653Z,97821.38
2024-02-29T18:10:37.108Z,97803.16
2024-02-29T18:15:39.657Z,97803.97
2024-02-29T18:20:41.768Z,97792.03
2024-02-29T18:25:44.775Z,97785.56
2024-02-29T18:30:47.062Z,97774.09
2024-02-29T18:35:49.307Z,97765.69
2024-02-29T18:40:52.004Z,97767.09
2024-02-29T18:46:03.110Z,97766.44
2024-02-29T18:51:10.888Z,97751.28
2024-02-29T18:56:13.077Z,97750.47
2024-02-29T19:01:15.234Z,97739.34
2024-02-29T19:06:21.554Z,97742.88
2024-02-29T19:11:23.753Z,97736.09
2024-02-29T19:16:25.997Z,97725.50
2024-02-29T19:21:28.133Z,97713.25
2024-02-29T19:26:30.722Z,97693.44
2024-02-29T19:31:34.152Z,97690.84
2024-02-29T19:36:36.434Z,97685.53
2024-02-29T19:41:38.891Z,97686.34
2024-02-29T19:46:48.830Z,97676.19
2024-02-29T19:51:51.354Z,97671.19
2024-02-29T19:56:53.405Z,97672.94
2024-02-29T20:01:56.131Z,97670.38
2024-02-29T20:06:58.515Z,97664.41
2024-02-29T20:12:01.350Z,97661.03
2024-02-29T20:17:08.768Z,97653.28
2024-02-29T20:22:11.178Z,97647.31
2024-02-29T20:27:13.227Z,97647.97
2024-02-29T20:32:15.328Z,97640.09
2024-02-29T20:37:18.243Z,97632.84
2024-02-29T20:42:20.293Z,97633.19
2024-02-29T20:47:22.692Z,97616.44
2024-02-29T20:52:29.024Z,97610.19
2024-02-29T20:57:33.424Z,97609.06
2024-02-29T21:02:35.483Z,97606.31
2024-02-29T21:07:42.127Z,97594.06
2024-02-29T21:12:46.654Z,97593.59
2024-02-29T21:17:51.537Z,97587.97
2024-02-29T21:22:54.248Z,97578.97
2024-02-29T21:27:56.446Z,97574.13
2024-02-29T21:32:58.853Z,97564.94
2024-02-29T21:38:00.910Z,97556.75
2024-02-29T21:43:03.220Z,97547.72
2024-02-29T21:48:06.053Z,97539.81
2024-02-29T21:53:09.086Z,97532.72
2024-02-29T21:58:11.285Z,97529.97
2024-02-29T22:03:13.386Z,97521.25
2024-02-29T22:08:15.427Z,97524.50
2024-02-29T22:13:17.502Z,97519.00
2024-02-29T22:18:20.022Z,97510.13
2024-02-29T22:23:22.093Z,97511.59
2024-02-29T22:28:24.123Z,97502.53
2024-02-29T22:33:26.782Z,97492.22
2024-02-29T22:38:29.077Z,97480.59
2024-02-29T22:43:31.568Z,97472.72
2024-02-29T22:48:34.130Z,97467.53
2024-02-29T22:53:39.575Z,97463.34
2024-02-29T22:58:41.590Z,97465.59
2024-02-29T23:03:43.746Z,97450.28
2024-02-29T23:08:46.218Z,97440.09
2024-02-29T23:13:48.170Z,97426.06
2024-02-29T23:18:50.357Z,97436.22
2024-02-29T23:23:52.611Z,97431.72
2024-02-29T23:28:56.094Z,97420.25
2024-02-29T23:33:58.644Z,97420.91
2024-02-29T23:39:00.753Z,97416.84
2024-02-29T23:44:02.910Z,97415.72
2024-02-29T23:49:15.138Z,97402.47
2024-02-29T23:54:17.548Z,97394.88
2024-02-29T23:59:20.163Z,97394.38
